sensor_id;sensor_type;location;lat;lon;timestamp;pressure;altitude;pressure_sealevel;temperature;humidity
29331;BME280;16331;52.528;13.342;2023-06-14T00:02:24;160286.47;;;16.67;100.00
29331;BME280;16331;52.528;13.342;2023-06-14T00:04:51;160257.53;;;16.56;100.00
29331;BME280;16331;52.528;13.342;2023-06-14T00:07:17;160243.72;;;16.51;100.00
29331;BME280;16331;52.528;13.342;2023-06-14T00:09:45;160205.06;;;16.37;100.00
29331;BME280;16331;52.528;13.342;2023-06-14T00:12:13;160238.19;;;16.49;100.00
29331;BME280;16331;52.528;13.342;2023-06-14T00:14:41;160232.66;;;16.47;100.00
29331;BME280;16331;52.528;13.342;2023-06-14T00:17:07;160206.41;;;16.38;100.00
29331;BME280;16331;52.528;13.342;2023-06-14T00:19:34;160181.63;;;16.29;100.00
29331;BME280;16331;52.528;13.342;2023-06-14T00:22:04;160162.28;;;16.22;100.00
29331;BME280;16331;52.528;13.342;2023-06-14T00:24:31;160169.22;;;16.24;100.00
29331;BME280;16331;52.528;13.342;2023-06-14T00:26:57;160151.28;;;16.18;100.00
29331;BME280;16331;52.528;13.342;2023-06-14T00:29:23;160181.63;;;16.29;100.00
29331;BME280;16331;52.528;13.342;2023-06-14T00:31:52;160147.16;;;16.16;100.00
29331;BME280;16331;52.528;13.342;2023-06-14T00:34:18;160094.78;;;15.97;100.00
29331;BME280;16331;52.528;13.342;2023-06-14T00:36:44;160125.09;;;16.08;100.00
29331;BME280;16331;52.528;13.342;2023-06-14T00:39:13;160165.09;;;16.23;100.00
29331;BME280;16331;52.528;13.342;2023-06-14T00:41:40;160159.56;;;16.21;100.00
29331;BME280;16331;52.528;13.342;2023-06-14T00:44:07;160170.56;;;16.25;100.00
29331;BME280;16331;52.528;13.342;2023-06-14T00:46:59;160098.91;;;15.99;100.00
29331;BME280;16331;52.528;13.342;2023-06-14T00:49:26;160114.03;;;16.04;100.00
29331;BME280;16331;52.528;13.342;2023-06-14T00:51:55;160114.03;;;16.04;100.00
29331;BME280;16331;52.528;13.342;2023-06-14T00:54:21;160091.97;;;15.96;100.00
29331;BME280;16331;52.528;13.342;2023-06-14T00:56:49;160108.56;;;16.02;100.00
29331;BME280;16331;52.528;13.342;2023-06-14T00:59:15;160111.31;;;16.03;100.00
29331;BME280;16331;52.528;13.342;2023-06-14T01:01:42;160130.63;;;16.10;100.00
29331;BME280;16331;52.528;13.342;2023-06-14T01:04:09;160140.22;;;16.14;100.00
29331;BME280;16331;52.528;13.342;2023-06-14T01:12:44;160041.00;;;15.77;100.00
29331;BME280;16331;52.528;13.342;2023-06-14T01:15:15;160045.13;;;15.79;100.00
29331;BME280;16331;52.528;13.342;2023-06-14T01:17:44;160060.31;;;15.84;100.00
29331;BME280;16331;52.528;13.342;2023-06-14T01:20:13;160067.19;;;15.87;100.00
29331;BME280;16331;52.528;13.342;2023-06-14T01:22:51;160090.63;;;15.96;100.00
29331;BME280;16331;52.528;13.342;2023-06-14T01:25:21;160086.50;;;15.94;100.00
29331;BME280;16331;52.528;13.342;2023-06-14T01:27:57;160068.59;;;15.87;100.00
29331;BME280;16331;52.528;13.342;2023-06-14T01:30:24;160053.41;;;15.82;100.00
29331;BME280;16331;52.528;13.342;2023-06-14T01:32:52;160079.59;;;15.91;100.00
29331;BME280;16331;52.528;13.342;2023-06-14T01:35:19;160083.72;;;15.93;100.00
29331;BME280;16331;52.528;13.342;2023-06-14T01:37:48;160079.59;;;15.91;100.00
29331;BME280;16331;52.528;13.342;2023-06-14T01:40:18;160116.84;;;16.05;100.00
29331;BME280;16331;52.528;13.342;2023-06-14T01:42:47;160086.50;;;15.94;100.00
29331;BME280;16331;52.528;13.342;2023-06-14T01:45:17;160056.13;;;15.83;100.00
29331;BME280;16331;52.528;13.342;2023-06-14T01:47:45;160035.47;;;15.75;100.00
29331;BME280;16331;52.528;13.342;2023-06-14T01:50:15;160031.34;;;15.74;100.00
29331;BME280;16331;52.528;13.342;2023-06-14T01:52:42;160029.94;;;15.73;100.00
29331;BME280;16331;52.528;13.342;2023-06-14T01:55:12;159996.91;;;15.61;100.00
29331;BME280;16331;52.528;13.342;2023-06-14T01:57:39;159987.25;;;15.58;100.00
29331;BME280;16331;52.528;13.342;2023-06-14T02:00:07;159965.19;;;15.50;100.00
29331;BME280;16331;52.528;13.342;2023-06-14T02:02:36;159961.06;;;15.48;100.00
29331;BME280;16331;52.528;13.342;2023-06-14T02:05:02;160050.66;;;15.81;100.00
29331;BME280;16331;52.528;13.342;2023-06-14T02:07:29;160006.56;;;15.65;100.00
29331;BME280;16331;52.528;13.342;2023-06-14T02:09:58;159958.34;;;15.47;100.00
29331;BME280;16331;52.528;13.342;2023-06-14T02:12:26;159939.03;;;15.40;100.00
29331;BME280;16331;52.528;13.342;2023-06-14T02:14:53;159966.59;;;15.50;100.00
29331;BME280;16331;52.528;13.342;2023-06-14T02:17:20;159980.38;;;15.55;100.00
29331;BME280;16331;52.528;13.342;2023-06-14T02:19:46;159990.03;;;15.59;100.00
29331;BME280;16331;52.528;13.342;2023-06-14T02:22:12;159987.25;;;15.58;100.00
29331;BME280;16331;52.528;13.342;2023-06-14T02:24:41;159955.53;;;15.46;100.00
29331;BME280;16331;52.528;13.342;2023-06-14T02:27:09;159961.06;;;15.48;100.00
29331;BME280;16331;52.528;13.342;2023-06-14T02:29:41;159947.28;;;15.43;100.00
29331;BME280;16331;52.528;13.342;2023-06-14T02:32:07;159943.16;;;15.42;100.00
29331;BME280;16331;52.528;13.342;2023-06-14T02:34:35;159901.78;;;15.27;100.00
29331;BME280;16331;52.528;13.342;2023-06-14T02:37:07;159888.00;;;15.22;100.00
29331;BME280;16331;52.528;13.342;2023-06-14T02:39:42;159876.97;;;15.18;100.00
29331;BME280;16331;52.528;13.342;2023-06-14T02:42:08;159943.16;;;15.42;100.00
29331;BME280;16331;52.528;13.342;2023-06-14T02:44:34;159921.06;;;15.34;100.00
29331;BME280;16331;52.528;13.342;2023-06-14T02:47:03;159929.31;;;15.37;100.00
29331;BME280;16331;52.528;13.342;2023-06-14T02:49:29;159933.50;;;15.38;100.00
29331;BME280;16331;52.528;13.342;2023-06-14T02:51:55;159937.63;;;15.40;100.00
29331;BME280;16331;52.528;13.342;2023-06-14T02:54:23;159922.44;;;15.34;100.00
29331;BME280;16331;52.528;13.342;2023-06-14T02:56:50;159925.19;;;15.35;100.00
29331;BME280;16331;52.528;13.342;2023-06-14T02:59:17;159888.00;;;15.22;100.00
29331;BME280;16331;52.528;13.342;2023-06-14T03:01:46;159860.44;;;15.12;100.00
29331;BME280;16331;52.528;13.342;2023-06-14T03:04:12;159870.09;;;15.15;100.00
29331;BME280;16331;52.528;13.342;2023-06-14T03:06:43;159874.22;;;15.17;100.00
29331;BME280;16331;52.528;13.342;2023-06-14T03:09:10;159817.75;;;14.96;100.00
29331;BME280;16331;52.528;13.342;2023-06-14T03:11:36;159828.75;;;15.00;100.00
29331;BME280;16331;52.528;13.342;2023-06-14T03:14:03;159819.09;;;14.97;100.00
29331;BME280;16331;52.528;13.342;2023-06-14T03:16:30;159876.97;;;15.18;100.00
29331;BME280;16331;52.528;13.342;2023-06-14T03:18:57;159854.91;;;15.10;100.00
29331;BME280;16331;52.528;13.342;2023-06-14T03:21:23;159850.78;;;15.08;100.00
29331;BME280;16331;52.528;13.342;2023-06-14T03:23:51;159907.25;;;15.29;100.00
29331;BME280;16331;52.528;13.342;2023-06-14T03:26:19;159899.00;;;15.26;100.00
29331;BME280;16331;52.528;13.342;2023-06-14T03:28:48;159827.41;;;15.00;100.00
29331;BME280;16331;52.528;13.342;2023-06-14T03:31:15;159901.78;;;15.27;100.00
29331;BME280;16331;52.528;13.342;2023-06-14T03:33:42;159874.22;;;15.17;100.00
29331;BME280;16331;52.528;13.342;2023-06-14T03:36:09;159864.56;;;15.13;100.00
29331;BME280;16331;52.528;13.342;2023-06-14T03:38:36;159881.09;;;15.19;100.00
29331;BME280;16331;52.528;13.342;2023-06-14T03:41:06;159876.97;;;15.18;100.00
29331;BME280;16331;52.528;13.342;2023-06-14T03:43:32;159865.97;;;15.14;100.00
29331;BME280;16331;52.528;13.342;2023-06-14T03:46:01;159870.09;;;15.15;100.00
29331;BME280;16331;52.528;13.342;2023-06-14T03:48:27;159908.66;;;15.29;100.00
29331;BME280;16331;52.528;13.342;2023-06-14T03:50:54;159856.31;;;15.10;100.00
29331;BME280;16331;52.528;13.342;2023-06-14T03:53:21;159874.22;;;15.17;100.00
29331;BME280;16331;52.528;13.342;2023-06-14T03:55:50;159926.56;;;15.36;100.00
29331;BME280;16331;52.528;13.342;2023-06-14T03:58:21;159962.47;;;15.49;100.00
29331;BME280;16331;52.528;13.342;2023-06-14T04:00:48;159956.94;;;15.47;100.00
29331;BME280;16331;52.528;13.342;2023-06-14T04:03:15;159992.78;;;15.60;100.00
29331;BME280;16331;52.528;13.342;2023-06-14T04:05:42;159990.03;;;15.59;100.00
29331;BME280;16331;52.528;13.342;2023-06-14T04:08:08;159972.13;;;15.52;100.00
29331;BME280;16331;52.528;13.342;2023-06-14T04:10:37;160053.41;;;15.82;100.00
29331;BME280;16331;52.528;13.342;2023-06-14T04:13:03;160112.69;;;16.04;100.00
29331;BME280;16331;52.528;13.342;2023-06-14T04:15:33;160183.00;;;16.29;100.00
29331;BME280;16331;52.528;13.342;2023-06-14T04:18:02;160218.81;;;16.42;100.00
29331;BME280;16331;52.528;13.342;2023-06-14T04:20:31;160185.75;;;16.30;100.00
29331;BME280;16331;52.528;13.342;2023-06-14T04:23:10;160180.22;;;16.28;100.00
29331;BME280;16331;52.528;13.342;2023-06-14T04:25:40;160220.22;;;16.43;100.00
29331;BME280;16331;52.528;13.342;2023-06-14T04:28:06;160293.41;;;16.69;100.00
29331;BME280;16331;52.528;13.342;2023-06-14T04:30:35;160396.84;;;17.07;100.00
29331;BME280;16331;52.528;13.342;2023-06-14T04:33:06;160606.66;;;17.83;100.00
29331;BME280;16331;52.528;13.342;2023-06-14T04:35:35;160677.09;;;18.09;100.00
29331;BME280;16331;52.528;13.342;2023-06-14T04:38:02;160597.03;;;17.80;100.00
29331;BME280;16331;52.528;13.342;2023-06-14T04:40:32;160463.06;;;17.31;100.00
29331;BME280;16331;52.528;13.342;2023-06-14T04:42:59;160420.31;;;17.15;100.00
29331;BME280;16331;52.528;13.342;2023-06-14T04:45:28;160369.22;;;16.97;100.00
29331;BME280;16331;52.528;13.342;2023-06-14T04:48:02;160349.94;;;16.90;100.00
29331;BME280;16331;52.528;13.342;2023-06-14T04:50:28;160274.06;;;16.62;100.00
29331;BME280;16331;52.528;13.342;2023-06-14T04:52:55;160309.94;;;16.75;100.00
29331;BME280;16331;52.528;13.342;2023-06-14T04:55:31;160418.91;;;17.15;100.00
29331;BME280;16331;52.528;13.342;2023-06-14T04:57:58;160405.09;;;17.10;100.00
29331;BME280;16331;52.528;13.342;2023-06-14T05:00:26;160403.72;;;17.09;100.00
29331;BME280;16331;52.528;13.342;2023-06-14T05:02:52;160456.19;;;17.28;100.00
29331;BME280;16331;52.528;13.342;2023-06-14T05:05:19;160421.66;;;17.16;100.00
29331;BME280;16331;52.528;13.342;2023-06-14T05:07:46;160421.66;;;17.16;100.00
29331;BME280;16331;52.528;13.342;2023-06-14T05:10:13;160489.28;;;17.41;100.00
29331;BME280;16331;52.528;13.342;2023-06-14T05:12:40;160500.41;;;17.45;100.00
29331;BME280;16331;52.528;13.342;2023-06-14T05:15:10;160445.13;;;17.24;100.00
29331;BME280;16331;52.528;13.342;2023-06-14T05:17:36;160445.13;;;17.24;100.00
29331;BME280;16331;52.528;13.342;2023-06-14T05:20:04;160435.47;;;17.21;100.00
29331;BME280;16331;52.528;13.342;2023-06-14T05:22:35;160441.00;;;17.23;100.00
29331;BME280;16331;52.528;13.342;2023-06-14T05:25:07;160418.91;;;17.15;100.00
29331;BME280;16331;52.528;13.342;2023-06-14T05:27:44;160458.94;;;17.29;100.00
29331;BME280;16331;52.528;13.342;2023-06-14T05:30:15;160574.94;;;17.72;100.00
29331;BME280;16331;52.528;13.342;2023-06-14T05:32:51;160677.09;;;18.09;100.00
29331;BME280;16331;52.528;13.342;2023-06-14T05:35:19;160601.19;;;17.81;100.00
29331;BME280;16331;52.528;13.342;2023-06-14T05:37:45;160608.06;;;17.84;100.00
29331;BME280;16331;52.528;13.342;2023-06-14T05:40:15;160668.81;;;18.06;100.00
29331;BME280;16331;52.528;13.342;2023-06-14T05:42:43;160672.94;;;18.07;100.00
29331;BME280;16331;52.528;13.342;2023-06-14T05:45:09;160584.56;;;17.75;100.00
29331;BME280;16331;52.528;13.342;2023-06-14T05:47:37;160617.75;;;17.87;100.00
29331;BME280;16331;52.528;13.342;2023-06-14T05:50:06;160721.28;;;18.25;100.00
29331;BME280;16331;52.528;13.342;2023-06-14T05:52:39;160652.25;;;18.00;100.00
29331;BME280;16331;52.528;13.342;2023-06-14T05:55:12;160729.63;;;18.28;100.00
29331;BME280;16331;52.528;13.342;2023-06-14T05:57:40;160743.38;;;18.33;100.00
29331;BME280;16331;52.528;13.342;2023-06-14T06:00:10;160539.06;;;17.59;100.00
29331;BME280;16331;52.528;13.342;2023-06-14T06:02:41;160548.72;;;17.62;100.00
29331;BME280;16331;52.528;13.342;2023-06-14T06:05:09;160643.97;;;17.97;100.00
29331;BME280;16331;52.528;13.342;2023-06-14T06:07:41;160492.03;;;17.42;100.00
29331;BME280;16331;52.528;13.342;2023-06-14T06:10:17;160598.38;;;17.80;100.00
29331;BME280;16331;52.528;13.342;2023-06-14T06:12:45;160753.06;;;18.36;100.00
29331;BME280;16331;52.528;13.342;2023-06-14T06:15:14;160690.91;;;18.14;100.00
29331;BME280;16331;52.528;13.342;2023-06-14T06:17:41;160721.28;;;18.25;100.00
29331;BME280;16331;52.528;13.342;2023-06-14T06:20:11;160675.75;;;18.08;100.00
29331;BME280;16331;52.528;13.342;2023-06-14T06:22:39;160508.69;;;17.48;100.00
29331;BME280;16331;52.528;13.342;2023-06-14T06:25:15;160558.34;;;17.66;100.00
29331;BME280;16331;52.528;13.342;2023-06-14T06:27:46;160630.16;;;17.92;100.00
29331;BME280;16331;52.528;13.342;2023-06-14T06:30:15;160566.63;;;17.69;100.00
29331;BME280;16331;52.528;13.342;2023-06-14T06:32:43;160653.66;;;18.00;100.00
29331;BME280;16331;52.528;13.342;2023-06-14T06:35:25;160584.56;;;17.75;100.00
29331;BME280;16331;52.528;13.342;2023-06-14T06:38:05;160616.34;;;17.87;100.00
29331;BME280;16331;52.528;13.342;2023-06-14T06:40:33;160632.91;;;17.93;100.00
29331;BME280;16331;52.528;13.342;2023-06-14T06:42:59;160627.41;;;17.91;100.00
29331;BME280;16331;52.528;13.342;2023-06-14T06:45:27;160537.66;;;17.58;100.00
29331;BME280;16331;52.528;13.342;2023-06-14T06:48:00;160668.81;;;18.06;100.00
29331;BME280;16331;52.528;13.342;2023-06-14T06:50:26;160784.91;;;18.48;100.00
29331;BME280;16331;52.528;13.342;2023-06-14T06:52:53;160778.00;;;18.45;100.00
29331;BME280;16331;52.528;13.342;2023-06-14T06:55:22;160794.56;;;18.51;100.00
29331;BME280;16331;52.528;13.342;2023-06-14T06:57:49;160848.47;;;18.71;100.00
29331;BME280;16331;52.528;13.342;2023-06-14T07:00:31;160708.88;;;18.20;100.00
29331;BME280;16331;52.528;13.342;2023-06-14T07:02:57;160859.50;;;18.75;100.00
29331;BME280;16331;52.528;13.342;2023-06-14T07:05:24;160867.78;;;18.78;100.00
29331;BME280;16331;52.528;13.342;2023-06-14T07:07:54;161008.81;;;19.29;100.00
29331;BME280;16331;52.528;13.342;2023-06-14T07:10:21;160967.31;;;19.14;100.00
29331;BME280;16331;52.528;13.342;2023-06-14T07:12:51;161025.38;;;19.35;100.00
29331;BME280;16331;52.528;13.342;2023-06-14T07:15:17;161000.47;;;19.26;100.00
29331;BME280;16331;52.528;13.342;2023-06-14T07:17:47;160935.50;;;19.03;100.00
29331;BME280;16331;52.528;13.342;2023-06-14T07:20:13;161046.16;;;19.43;100.00
29331;BME280;16331;52.528;13.342;2023-06-14T07:22:42;161079.31;;;19.55;100.00
29331;BME280;16331;52.528;13.342;2023-06-14T07:25:15;160924.44;;;18.99;100.00
29331;BME280;16331;52.528;13.342;2023-06-14T07:27:50;160912.00;;;18.94;100.00
29331;BME280;16331;52.528;13.342;2023-06-14T07:30:16;161065.47;;;19.50;100.00
29331;BME280;16331;52.528;13.342;2023-06-14T07:32:42;161095.88;;;19.61;100.00
29331;BME280;16331;52.528;13.342;2023-06-14T07:35:09;161134.66;;;19.75;100.00
29331;BME280;16331;52.528;13.342;2023-06-14T07:37:36;161185.81;;;19.93;100.00
29331;BME280;16331;52.528;13.342;2023-06-14T07:40:03;161205.19;;;20.00;100.00
29331;BME280;16331;52.528;13.342;2023-06-14T07:42:34;161326.97;;;20.45;100.00
29331;BME280;16331;52.528;13.342;2023-06-14T07:45:02;161465.38;;;20.95;100.00
29331;BME280;16331;52.528;13.342;2023-06-14T07:47:28;161497.28;;;21.06;100.00
29331;BME280;16331;52.528;13.342;2023-06-14T07:49:55;161538.78;;;21.21;100.00
29331;BME280;16331;52.528;13.342;2023-06-14T07:52:23;161369.84;;;20.60;100.00
29331;BME280;16331;52.528;13.342;2023-06-14T07:54:50;161537.38;;;21.21;100.00
29331;BME280;16331;52.528;13.342;2023-06-14T07:57:16;161631.56;;;21.55;100.00
29331;BME280;16331;52.528;13.342;2023-06-14T07:59:42;161652.31;;;21.63;100.00
29331;BME280;16331;52.528;13.342;2023-06-14T08:02:08;161684.19;;;21.74;100.00
29331;BME280;16331;52.528;13.342;2023-06-14T08:04:36;161662.00;;;21.66;100.00
29331;BME280;16331;52.528;13.342;2023-06-14T08:07:06;161698.09;;;21.79;100.00
29331;BME280;16331;52.528;13.342;2023-06-14T08:09:34;161747.97;;;21.97;100.00
29331;BME280;16331;52.528;13.342;2023-06-14T08:12:08;161706.41;;;21.82;100.00
29331;BME280;16331;52.528;13.342;2023-06-14T08:14:35;161677.28;;;21.72;100.00
29331;BME280;16331;52.528;13.342;2023-06-14T08:17:01;161706.41;;;21.82;100.00
29331;BME280;16331;52.528;13.342;2023-06-14T08:19:28;161628.78;;;21.54;100.00
29331;BME280;16331;52.528;13.342;2023-06-14T08:21:54;161620.50;;;21.51;100.00
29331;BME280;16331;52.528;13.342;2023-06-14T08:24:22;161576.19;;;21.35;100.00
29331;BME280;16331;52.528;13.342;2023-06-14T08:26:54;161469.56;;;20.96;100.00
29331;BME280;16331;52.528;13.342;2023-06-14T08:29:22;161619.09;;;21.50;100.00
29331;BME280;16331;52.528;13.342;2023-06-14T08:31:48;161479.28;;;21.00;100.00
29331;BME280;16331;52.528;13.342;2023-06-14T08:34:15;161559.53;;;21.29;100.00
29331;BME280;16331;52.528;13.342;2023-06-14T08:36:42;161522.16;;;21.15;100.00
29331;BME280;16331;52.528;13.342;2023-06-14T08:39:08;161709.19;;;21.83;100.00
29331;BME280;16331;52.528;13.342;2023-06-14T08:41:36;161666.16;;;21.68;100.00
29331;BME280;16331;52.528;13.342;2023-06-14T08:44:02;161839.41;;;22.30;99.98
29331;BME280;16331;52.528;13.342;2023-06-14T08:46:32;161854.66;;;22.36;98.06
29331;BME280;16331;52.528;13.342;2023-06-14T08:49:00;161739.66;;;21.94;100.00
29331;BME280;16331;52.528;13.342;2023-06-14T08:51:28;161717.50;;;21.86;98.21
29331;BME280;16331;52.528;13.342;2023-06-14T08:54:01;161781.19;;;22.09;95.17
29331;BME280;16331;52.528;13.342;2023-06-14T08:56:28;161858.81;;;22.37;94.59
29331;BME280;16331;52.528;13.342;2023-06-14T08:58:56;161890.66;;;22.49;91.98
29331;BME280;16331;52.528;13.342;2023-06-14T09:01:23;161907.38;;;22.55;90.89
29331;BME280;16331;52.528;13.342;2023-06-14T09:03:50;161997.47;;;22.87;89.58
29331;BME280;16331;52.528;13.342;2023-06-14T09:06:17;161991.94;;;22.85;90.03
29331;BME280;16331;52.528;13.342;2023-06-14T09:08:45;161982.22;;;22.82;88.14
29331;BME280;16331;52.528;13.342;2023-06-14T09:11:16;162206.94;;;23.63;83.15
29331;BME280;16331;52.528;13.342;2023-06-14T09:13:46;162133.44;;;23.37;81.82
29331;BME280;16331;52.528;13.342;2023-06-14T09:16:17;162245.75;;;23.77;79.33
29331;BME280;16331;52.528;13.342;2023-06-14T09:18:47;162274.94;;;23.88;77.65
29331;BME280;16331;52.528;13.342;2023-06-14T09:21:17;161997.47;;;22.87;81.28
29331;BME280;16331;52.528;13.342;2023-06-14T09:23:46;161980.84;;;22.81;83.88
29331;BME280;16331;52.528;13.342;2023-06-14T09:26:19;162243.00;;;23.76;77.69
29331;BME280;16331;52.528;13.342;2023-06-14T09:28:53;162286.00;;;23.92;75.90
29331;BME280;16331;52.528;13.342;2023-06-14T09:31:22;162283.25;;;23.91;74.44
29331;BME280;16331;52.528;13.342;2023-06-14T09:33:50;162152.81;;;23.44;79.31
29331;BME280;16331;52.528;13.342;2023-06-14T09:36:25;162148.66;;;23.42;78.44
29331;BME280;16331;52.528;13.342;2023-06-14T09:38:56;162079.28;;;23.17;81.20
29331;BME280;16331;52.528;13.342;2023-06-14T09:41:37;162069.56;;;23.14;82.38
29331;BME280;16331;52.528;13.342;2023-06-14T09:44:05;162209.69;;;23.64;79.99
29331;BME280;16331;52.528;13.342;2023-06-14T09:46:33;162200.00;;;23.61;81.45
29331;BME280;16331;52.528;13.342;2023-06-14T09:49:00;162169.44;;;23.50;81.15
29331;BME280;16331;52.528;13.342;2023-06-14T09:51:28;162388.75;;;24.29;77.98
29331;BME280;16331;52.528;13.342;2023-06-14T09:54:01;162417.88;;;24.40;71.52
29331;BME280;16331;52.528;13.342;2023-06-14T09:56:36;162535.97;;;24.82;68.70
29331;BME280;16331;52.528;13.342;2023-06-14T09:59:05;162322.13;;;24.05;70.84
29331;BME280;16331;52.528;13.342;2023-06-14T10:01:35;162440.09;;;24.48;70.06
29331;BME280;16331;52.528;13.342;2023-06-14T10:04:04;162397.09;;;24.32;70.75
29331;BME280;16331;52.528;13.342;2023-06-14T10:06:31;162435.94;;;24.46;70.01
29331;BME280;16331;52.528;13.342;2023-06-14T10:09:00;162206.94;;;23.63;74.89
29331;BME280;16331;52.528;13.342;2023-06-14T10:11:27;162272.13;;;23.87;75.05
29331;BME280;16331;52.528;13.342;2023-06-14T10:13:57;162209.69;;;23.64;75.63
29331;BME280;16331;52.528;13.342;2023-06-14T10:16:33;162337.44;;;24.10;74.29
29331;BME280;16331;52.528;13.342;2023-06-14T10:24:34;162380.44;;;24.26;71.37
29331;BME280;16331;52.528;13.342;2023-06-14T10:27:07;162422.03;;;24.41;72.86
29331;BME280;16331;52.528;13.342;2023-06-14T10:32:20;162453.97;;;24.53;68.08
29331;BME280;16331;52.528;13.342;2023-06-14T10:34:54;162369.31;;;24.22;71.21
29331;BME280;16331;52.528;13.342;2023-06-14T10:37:21;162331.88;;;24.08;72.14
29331;BME280;16331;52.528;13.342;2023-06-14T10:39:47;162495.69;;;24.68;68.05
29331;BME280;16331;52.528;13.342;2023-06-14T10:42:14;162356.81;;;24.17;69.88
29331;BME280;16331;52.528;13.342;2023-06-14T10:44:45;162609.53;;;25.09;65.56
29331;BME280;16331;52.528;13.342;2023-06-14T10:47:30;162449.81;;;24.51;66.72
29331;BME280;16331;52.528;13.342;2023-06-14T10:52:30;162209.69;;;23.64;76.51
29331;BME280;16331;52.528;13.342;2023-06-14T10:55:11;162502.63;;;24.70;67.85
29331;BME280;16331;52.528;13.342;2023-06-14T10:57:46;162498.47;;;24.69;67.78
29331;BME280;16331;52.528;13.342;2023-06-14T11:00:16;162534.56;;;24.82;64.24
29331;BME280;16331;52.528;13.342;2023-06-14T11:03:31;162491.50;;;24.66;63.96
29331;BME280;16331;52.528;13.342;2023-06-14T11:06:14;162467.88;;;24.58;65.10
29331;BME280;16331;52.528;13.342;2023-06-14T11:09:07;162680.44;;;25.34;60.28
29331;BME280;16331;52.528;13.342;2023-06-14T11:11:39;162916.72;;;26.20;56.35
29331;BME280;16331;52.528;13.342;2023-06-14T11:14:09;162738.78;;;25.55;56.00
29331;BME280;16331;52.528;13.342;2023-06-14T11:16:37;162933.38;;;26.26;53.48
29331;BME280;16331;52.528;13.342;2023-06-14T11:19:09;162808.25;;;25.81;54.61
29331;BME280;16331;52.528;13.342;2023-06-14T11:21:40;162738.78;;;25.55;52.75
29331;BME280;16331;52.528;13.342;2023-06-14T11:24:10;162629.00;;;25.16;55.49
29331;BME280;16331;52.528;13.342;2023-06-14T11:26:38;162545.69;;;24.86;55.37
29331;BME280;16331;52.528;13.342;2023-06-14T11:29:04;162674.81;;;25.32;54.13
29331;BME280;16331;52.528;13.342;2023-06-14T11:31:30;162724.88;;;25.50;52.60
29331;BME280;16331;52.528;13.342;2023-06-14T11:34:02;162934.78;;;26.26;49.75
29331;BME280;16331;52.528;13.342;2023-06-14T11:36:30;163200.44;;;27.22;47.50
29331;BME280;16331;52.528;13.342;2023-06-14T11:39:03;163073.84;;;26.76;47.59
29331;BME280;16331;52.528;13.342;2023-06-14T11:41:35;163285.34;;;27.53;45.22
29331;BME280;16331;52.528;13.342;2023-06-14T11:44:02;163005.69;;;26.52;47.00
29331;BME280;16331;52.528;13.342;2023-06-14T11:46:29;163371.59;;;27.84;45.26
29331;BME280;16331;52.528;13.342;2023-06-14T11:48:56;163233.84;;;27.34;45.26
29331;BME280;16331;52.528;13.342;2023-06-14T11:51:22;163749.09;;;29.20;41.63
29331;BME280;16331;52.528;13.342;2023-06-14T11:53:50;163868.91;;;29.63;40.05
29331;BME280;16331;52.528;13.342;2023-06-14T11:56:20;164053.00;;;30.29;38.65
29331;BME280;16331;52.528;13.342;2023-06-14T11:58:46;164212.00;;;30.86;37.08
29331;BME280;16331;52.528;13.342;2023-06-14T12:01:19;164340.41;;;31.33;35.04
29331;BME280;16331;52.528;13.342;2023-06-14T12:03:49;164318.03;;;31.25;35.63
29331;BME280;16331;52.528;13.342;2023-06-14T12:06:29;163583.31;;;28.60;38.27
29331;BME280;16331;52.528;13.342;2023-06-14T12:08:58;162976.47;;;26.41;43.29
29331;BME280;16331;52.528;13.342;2023-06-14T12:11:32;162929.22;;;26.24;43.38
29331;BME280;16331;52.528;13.342;2023-06-14T12:14:00;163776.97;;;29.30;38.92
29331;BME280;16331;52.528;13.342;2023-06-14T12:16:33;163803.44;;;29.39;37.80
29331;BME280;16331;52.528;13.342;2023-06-14T12:19:18;163789.47;;;29.34;37.63
29331;BME280;16331;52.528;13.342;2023-06-14T12:21:47;163616.72;;;28.72;37.29
29331;BME280;16331;52.528;13.342;2023-06-14T12:24:15;163623.72;;;28.75;36.95
29331;BME280;16331;52.528;13.342;2023-06-14T12:26:42;163492.75;;;28.27;37.14
29331;BME280;16331;52.528;13.342;2023-06-14T12:29:08;163668.28;;;28.91;36.29
29331;BME280;16331;52.528;13.342;2023-06-14T12:31:35;164016.72;;;30.16;34.52
29331;BME280;16331;52.528;13.342;2023-06-14T12:34:02;163506.69;;;28.32;36.25
29331;BME280;16331;52.528;13.342;2023-06-14T12:36:29;164053.00;;;30.29;34.57
29331;BME280;16331;52.528;13.342;2023-06-14T12:38:57;164614.03;;;32.31;31.24
29331;BME280;16331;52.528;13.342;2023-06-14T12:41:23;164823.59;;;33.06;30.06
29331;BME280;16331;52.528;13.342;2023-06-14T12:43:51;163991.63;;;30.07;33.08
29331;BME280;16331;52.528;13.342;2023-06-14T12:46:19;163895.44;;;29.73;34.90
29331;BME280;16331;52.528;13.342;2023-06-14T12:48:45;163640.41;;;28.81;35.55
29331;BME280;16331;52.528;13.342;2023-06-14T12:51:11;163568.00;;;28.55;34.82
29331;BME280;16331;52.528;13.342;2023-06-14T12:53:37;164033.47;;;30.22;32.73
29331;BME280;16331;52.528;13.342;2023-06-14T12:56:04;163920.56;;;29.82;33.37
29331;BME280;16331;52.528;13.342;2023-06-14T12:58:33;164577.72;;;32.18;30.56
29331;BME280;16331;52.528;13.342;2023-06-14T13:00:59;164329.22;;;31.29;30.03